sensor_id;sensor_type;location;lat;lon;timestamp;temperature;humidity
5560;DHT22;2803;47.916;8.074;2022-10-16T00:00:25;16.30;99.90
5560;DHT22;2803;47.916;8.074;2022-10-16T00:02:52;16.30;99.90
5560;DHT22;2803;47.916;8.074;2022-10-16T00:05:18;15.80;99.90
5560;DHT22;2803;47.916;8.074;2022-10-16T00:07:45;15.70;99.90
5560;DHT22;2803;47.916;8.074;2022-10-16T00:10:12;15.30;99.90
5560;DHT22;2803;47.916;8.074;2022-10-16T00:12:38;15.40;99.90
5560;DHT22;2803;47.916;8.074;2022-10-16T00:15:07;15.50;99.90
5560;DHT22;2803;47.916;8.074;2022-10-16T00:17:34;15.60;99.90
5560;DHT22;2803;47.916;8.074;2022-10-16T00:20:00;15.90;99.90
5560;DHT22;2803;47.916;8.074;2022-10-16T00:22:27;15.70;99.90
5560;DHT22;2803;47.916;8.074;2022-10-16T00:24:54;16.10;99.90
5560;DHT22;2803;47.916;8.074;2022-10-16T00:27:20;16.10;99.90
5560;DHT22;2803;47.916;8.074;2022-10-16T00:29:49;16.40;99.90
5560;DHT22;2803;47.916;8.074;2022-10-16T00:32:17;16.50;99.90
5560;DHT22;2803;47.916;8.074;2022-10-16T00:34:45;16.50;99.90
5560;DHT22;2803;47.916;8.074;2022-10-16T00:37:12;16.50;99.90
5560;DHT22;2803;47.916;8.074;2022-10-16T00:39:39;16.30;99.90
5560;DHT22;2803;47.916;8.074;2022-10-16T00:42:05;16.40;99.90
5560;DHT22;2803;47.916;8.074;2022-10-16T00:44:48;16.40;99.90
5560;DHT22;2803;47.916;8.074;2022-10-16T00:47:22;16.60;99.90
5560;DHT22;2803;47.916;8.074;2022-10-16T00:49:53;16.70;99.90
5560;DHT22;2803;47.916;8.074;2022-10-16T00:52:20;16.30;99.90
5560;DHT22;2803;47.916;8.074;2022-10-16T00:54:47;16.30;99.90
5560;DHT22;2803;47.916;8.074;2022-10-16T00:57:15;16.40;99.90
5560;DHT22;2803;47.916;8.074;2022-10-16T00:59:42;16.70;99.90
5560;DHT22;2803;47.916;8.074;2022-10-16T01:02:12;16.60;99.90
5560;DHT22;2803;47.916;8.074;2022-10-16T01:04:43;15.90;99.90
5560;DHT22;2803;47.916;8.074;2022-10-16T01:07:16;15.90;99.90
5560;DHT22;2803;47.916;8.074;2022-10-16T01:09:54;15.80;99.90
5560;DHT22;2803;47.916;8.074;2022-10-16T01:12:33;16.10;99.90
5560;DHT22;2803;47.916;8.074;2022-10-16T01:15:07;16.40;99.90
5560;DHT22;2803;47.916;8.074;2022-10-16T01:17:40;16.40;99.90
5560;DHT22;2803;47.916;8.074;2022-10-16T01:20:15;16.50;99.90
5560;DHT22;2803;47.916;8.074;2022-10-16T01:22:56;16.30;99.90
5560;DHT22;2803;47.916;8.074;2022-10-16T01:25:30;16.10;99.90
5560;DHT22;2803;47.916;8.074;2022-10-16T01:28:01;16.40;99.90
5560;DHT22;2803;47.916;8.074;2022-10-16T01:30:31;16.60;99.90
5560;DHT22;2803;47.916;8.074;2022-10-16T01:33:02;16.60;99.90
5560;DHT22;2803;47.916;8.074;2022-10-16T01:35:33;16.60;99.90
5560;DHT22;2803;47.916;8.074;2022-10-16T01:38:05;16.60;99.90
5560;DHT22;2803;47.916;8.074;2022-10-16T01:40:34;16.50;99.90
5560;DHT22;2803;47.916;8.074;2022-10-16T01:43:06;16.60;99.90
5560;DHT22;2803;47.916;8.074;2022-10-16T01:45:35;16.70;99.90
5560;DHT22;2803;47.916;8.074;2022-10-16T01:48:04;16.60;99.90
5560;DHT22;2803;47.916;8.074;2022-10-16T01:50:35;16.60;99.90
5560;DHT22;2803;47.916;8.074;2022-10-16T01:53:05;16.60;99.90
5560;DHT22;2803;47.916;8.074;2022-10-16T01:55:36;16.70;99.90
5560;DHT22;2803;47.916;8.074;2022-10-16T01:58:07;16.70;99.90
5560;DHT22;2803;47.916;8.074;2022-10-16T02:00:37;16.50;99.90
5560;DHT22;2803;47.916;8.074;2022-10-16T02:03:05;16.40;99.90
5560;DHT22;2803;47.916;8.074;2022-10-16T02:05:36;16.40;99.90
5560;DHT22;2803;47.916;8.074;2022-10-16T02:08:03;16.50;99.90
5560;DHT22;2803;47.916;8.074;2022-10-16T02:10:30;16.30;99.90
5560;DHT22;2803;47.916;8.074;2022-10-16T02:12:59;15.70;99.90
5560;DHT22;2803;47.916;8.074;2022-10-16T02:15:28;15.20;99.90
5560;DHT22;2803;47.916;8.074;2022-10-16T02:17:55;15.60;99.90
5560;DHT22;2803;47.916;8.074;2022-10-16T02:20:25;16.00;99.90
5560;DHT22;2803;47.916;8.074;2022-10-16T02:22:54;16.10;99.90
5560;DHT22;2803;47.916;8.074;2022-10-16T02:25:26;15.90;99.90
5560;DHT22;2803;47.916;8.074;2022-10-16T02:27:55;15.70;99.90
5560;DHT22;2803;47.916;8.074;2022-10-16T02:30:25;15.50;99.90
5560;DHT22;2803;47.916;8.074;2022-10-16T02:32:56;15.80;99.90
5560;DHT22;2803;47.916;8.074;2022-10-16T02:35:25;15.30;99.90
5560;DHT22;2803;47.916;8.074;2022-10-16T02:37:53;15.80;99.90
5560;DHT22;2803;47.916;8.074;2022-10-16T02:40:20;15.80;99.90
5560;DHT22;2803;47.916;8.074;2022-10-16T02:42:50;16.10;99.90
5560;DHT22;2803;47.916;8.074;2022-10-16T02:45:17;16.30;99.90
5560;DHT22;2803;47.916;8.074;2022-10-16T02:47:44;15.70;99.90
5560;DHT22;2803;47.916;8.074;2022-10-16T02:50:12;14.60;99.90
5560;DHT22;2803;47.916;8.074;2022-10-16T02:52:38;15.10;99.90
5560;DHT22;2803;47.916;8.074;2022-10-16T02:55:05;15.50;99.90
5560;DHT22;2803;47.916;8.074;2022-10-16T02:57:32;15.80;99.90
5560;DHT22;2803;47.916;8.074;2022-10-16T02:59:59;15.40;99.90
5560;DHT22;2803;47.916;8.074;2022-10-16T03:02:25;14.90;99.90
5560;DHT22;2803;47.916;8.074;2022-10-16T03:04:52;14.90;99.90
5560;DHT22;2803;47.916;8.074;2022-10-16T03:07:20;15.10;99.90
5560;DHT22;2803;47.916;8.074;2022-10-16T03:09:46;15.10;99.90
5560;DHT22;2803;47.916;8.074;2022-10-16T03:12:13;15.40;99.90
5560;DHT22;2803;47.916;8.074;2022-10-16T03:14:40;15.60;99.90
5560;DHT22;2803;47.916;8.074;2022-10-16T03:17:06;15.60;99.90
5560;DHT22;2803;47.916;8.074;2022-10-16T03:19:33;15.60;99.90
5560;DHT22;2803;47.916;8.074;2022-10-16T03:22:00;15.90;99.90
5560;DHT22;2803;47.916;8.074;2022-10-16T03:24:27;15.80;99.90
5560;DHT22;2803;47.916;8.074;2022-10-16T03:26:55;16.00;99.90
5560;DHT22;2803;47.916;8.074;2022-10-16T03:29:22;16.20;99.90
5560;DHT22;2803;47.916;8.074;2022-10-16T03:31:49;16.30;99.90
5560;DHT22;2803;47.916;8.074;2022-10-16T03:34:15;16.30;99.90
5560;DHT22;2803;47.916;8.074;2022-10-16T03:36:42;16.40;99.90
5560;DHT22;2803;47.916;8.074;2022-10-16T03:39:08;16.40;99.90
5560;DHT22;2803;47.916;8.074;2022-10-16T03:41:36;16.30;99.90
5560;DHT22;2803;47.916;8.074;2022-10-16T03:44:03;16.10;99.90
5560;DHT22;2803;47.916;8.074;2022-10-16T03:46:29;16.30;99.90
5560;DHT22;2803;47.916;8.074;2022-10-16T03:48:56;15.90;99.90
5560;DHT22;2803;47.916;8.074;2022-10-16T03:51:22;16.10;99.90
5560;DHT22;2803;47.916;8.074;2022-10-16T03:53:49;16.20;99.90
5560;DHT22;2803;47.916;8.074;2022-10-16T03:56:17;16.30;99.90
5560;DHT22;2803;47.916;8.074;2022-10-16T03:58:45;16.50;99.90
5560;DHT22;2803;47.916;8.074;2022-10-16T04:01:11;15.90;99.90
5560;DHT22;2803;47.916;8.074;2022-10-16T04:03:38;16.10;99.90
5560;DHT22;2803;47.916;8.074;2022-10-16T04:06:05;16.00;99.90
5560;DHT22;2803;47.916;8.074;2022-10-16T04:08:32;16.00;99.90
5560;DHT22;2803;47.916;8.074;2022-10-16T04:11:00;15.80;99.90
5560;DHT22;2803;47.916;8.074;2022-10-16T04:13:27;15.70;99.90
5560;DHT22;2803;47.916;8.074;2022-10-16T04:15:55;15.80;99.90
5560;DHT22;2803;47.916;8.074;2022-10-16T04:18:22;16.00;99.90
5560;DHT22;2803;47.916;8.074;2022-10-16T04:20:49;16.10;99.90
5560;DHT22;2803;47.916;8.074;2022-10-16T04:23:15;16.10;99.90
5560;DHT22;2803;47.916;8.074;2022-10-16T04:25:42;16.30;99.90
5560;DHT22;2803;47.916;8.074;2022-10-16T04:28:08;16.50;99.90
5560;DHT22;2803;47.916;8.074;2022-10-16T04:30:37;16.00;99.90
5560;DHT22;2803;47.916;8.074;2022-10-16T04:33:05;16.20;99.90
5560;DHT22;2803;47.916;8.074;2022-10-16T04:35:32;16.10;99.90
5560;DHT22;2803;47.916;8.074;2022-10-16T04:37:58;16.40;99.90
5560;DHT22;2803;47.916;8.074;2022-10-16T04:40:25;16.40;99.90
5560;DHT22;2803;47.916;8.074;2022-10-16T04:42:51;16.20;99.90
5560;DHT22;2803;47.916;8.074;2022-10-16T04:45:18;16.40;99.90
5560;DHT22;2803;47.916;8.074;2022-10-16T04:47:45;16.30;99.90
5560;DHT22;2803;47.916;8.074;2022-10-16T04:50:13;16.10;99.90
5560;DHT22;2803;47.916;8.074;2022-10-16T04:52:39;16.00;99.90
5560;DHT22;2803;47.916;8.074;2022-10-16T04:55:06;16.30;99.90
5560;DHT22;2803;47.916;8.074;2022-10-16T04:57:33;16.10;99.90
5560;DHT22;2803;47.916;8.074;2022-10-16T05:00:00;16.30;99.90
5560;DHT22;2803;47.916;8.074;2022-10-16T05:02:28;16.30;99.90
5560;DHT22;2803;47.916;8.074;2022-10-16T05:04:54;15.70;99.90
5560;DHT22;2803;47.916;8.074;2022-10-16T05:07:22;15.80;99.90
5560;DHT22;2803;47.916;8.074;2022-10-16T05:09:49;15.90;99.90
5560;DHT22;2803;47.916;8.074;2022-10-16T05:12:15;15.90;99.90
5560;DHT22;2803;47.916;8.074;2022-10-16T05:14:42;15.40;99.90
5560;DHT22;2803;47.916;8.074;2022-10-16T05:17:09;15.70;99.90
5560;DHT22;2803;47.916;8.074;2022-10-16T05:19:35;15.90;99.90
5560;DHT22;2803;47.916;8.074;2022-10-16T05:22:02;15.90;99.90
5560;DHT22;2803;47.916;8.074;2022-10-16T05:24:30;15.70;99.90
5560;DHT22;2803;47.916;8.074;2022-10-16T05:26:56;15.90;99.90
5560;DHT22;2803;47.916;8.074;2022-10-16T05:29:23;16.20;99.90
5560;DHT22;2803;47.916;8.074;2022-10-16T05:31:51;16.50;99.90
5560;DHT22;2803;47.916;8.074;2022-10-16T05:34:18;16.60;99.90
5560;DHT22;2803;47.916;8.074;2022-10-16T05:36:44;16.70;99.90
5560;DHT22;2803;47.916;8.074;2022-10-16T05:39:11;16.50;99.90
5560;DHT22;2803;47.916;8.074;2022-10-16T05:41:39;16.40;99.90
5560;DHT22;2803;47.916;8.074;2022-10-16T05:44:06;16.30;99.90
5560;DHT22;2803;47.916;8.074;2022-10-16T05:46:33;16.30;99.90
5560;DHT22;2803;47.916;8.074;2022-10-16T05:49:00;16.10;99.90
5560;DHT22;2803;47.916;8.074;2022-10-16T05:51:26;16.20;99.90
5560;DHT22;2803;47.916;8.074;2022-10-16T05:53:53;16.40;99.90
5560;DHT22;2803;47.916;8.074;2022-10-16T05:56:19;16.50;99.90
5560;DHT22;2803;47.916;8.074;2022-10-16T05:58:47;16.40;99.90
5560;DHT22;2803;47.916;8.074;2022-10-16T06:01:16;16.30;99.90
5560;DHT22;2803;47.916;8.074;2022-10-16T06:03:43;16.30;99.90
5560;DHT22;2803;47.916;8.074;2022-10-16T06:06:11;16.30;99.90
5560;DHT22;2803;47.916;8.074;2022-10-16T06:08:39;16.40;99.90
5560;DHT22;2803;47.916;8.074;2022-10-16T06:11:07;16.30;99.90
5560;DHT22;2803;47.916;8.074;2022-10-16T06:13:34;16.40;99.90
5560;DHT22;2803;47.916;8.074;2022-10-16T06:16:03;16.60;99.90
5560;DHT22;2803;47.916;8.074;2022-10-16T06:18:30;16.70;99.90
5560;DHT22;2803;47.916;8.074;2022-10-16T06:20:57;16.10;99.90
5560;DHT22;2803;47.916;8.074;2022-10-16T06:23:25;16.30;99.90
5560;DHT22;2803;47.916;8.074;2022-10-16T06:25:52;16.30;99.90
5560;DHT22;2803;47.916;8.074;2022-10-16T06:28:18;16.10;99.90
5560;DHT22;2803;47.916;8.074;2022-10-16T06:30:45;16.20;99.90
5560;DHT22;2803;47.916;8.074;2022-10-16T06:33:13;16.50;99.90
5560;DHT22;2803;47.916;8.074;2022-10-16T06:35:39;16.60;99.90
5560;DHT22;2803;47.916;8.074;2022-10-16T06:38:06;16.70;99.90
5560;DHT22;2803;47.916;8.074;2022-10-16T06:40:33;16.40;99.90
5560;DHT22;2803;47.916;8.074;2022-10-16T06:42:59;16.30;99.90
5560;DHT22;2803;47.916;8.074;2022-10-16T06:45:26;16.20;99.90
5560;DHT22;2803;47.916;8.074;2022-10-16T06:47:52;16.30;99.90
5560;DHT22;2803;47.916;8.074;2022-10-16T06:50:20;16.60;99.90
5560;DHT22;2803;47.916;8.074;2022-10-16T06:52:47;16.50;99.90
5560;DHT22;2803;47.916;8.074;2022-10-16T06:55:13;16.80;99.90
5560;DHT22;2803;47.916;8.074;2022-10-16T06:57:42;16.60;99.90
5560;DHT22;2803;47.916;8.074;2022-10-16T07:00:10;16.80;99.90
5560;DHT22;2803;47.916;8.074;2022-10-16T07:02:36;16.60;99.90
5560;DHT22;2803;47.916;8.074;2022-10-16T07:05:03;16.80;99.90
5560;DHT22;2803;47.916;8.074;2022-10-16T07:07:31;17.00;99.90
5560;DHT22;2803;47.916;8.074;2022-10-16T07:09:58;17.10;99.90
5560;DHT22;2803;47.916;8.074;2022-10-16T07:12:24;17.30;99.90
5560;DHT22;2803;47.916;8.074;2022-10-16T07:14:51;17.40;99.90
5560;DHT22;2803;47.916;8.074;2022-10-16T07:17:19;17.50;99.90
5560;DHT22;2803;47.916;8.074;2022-10-16T07:19:46;17.60;99.90
5560;DHT22;2803;47.916;8.074;2022-10-16T07:22:12;17.60;99.90
5560;DHT22;2803;47.916;8.074;2022-10-16T07:24:40;17.60;99.90
5560;DHT22;2803;47.916;8.074;2022-10-16T07:27:08;17.20;99.90
5560;DHT22;2803;47.916;8.074;2022-10-16T07:29:35;17.50;99.90
5560;DHT22;2803;47.916;8.074;2022-10-16T07:32:02;17.60;99.90
5560;DHT22;2803;47.916;8.074;2022-10-16T07:34:29;17.90;99.90
5560;DHT22;2803;47.916;8.074;2022-10-16T07:36:55;17.70;99.90
5560;DHT22;2803;47.916;8.074;2022-10-16T07:39:22;17.80;99.90
5560;DHT22;2803;47.916;8.074;2022-10-16T07:41:50;17.80;99.90
5560;DHT22;2803;47.916;8.074;2022-10-16T07:44:17;17.80;99.90
5560;DHT22;2803;47.916;8.074;2022-10-16T07:46:43;17.60;99.90
5560;DHT22;2803;47.916;8.074;2022-10-16T07:49:10;17.70;99.90
5560;DHT22;2803;47.916;8.074;2022-10-16T07:51:37;17.90;99.90
5560;DHT22;2803;47.916;8.074;2022-10-16T07:54:04;18.00;99.90
5560;DHT22;2803;47.916;8.074;2022-10-16T07:56:31;18.20;99.90
5560;DHT22;2803;47.916;8.074;2022-10-16T07:59:00;18.30;99.90
5560;DHT22;2803;47.916;8.074;2022-10-16T08:01:27;18.40;99.90
5560;DHT22;2803;47.916;8.074;2022-10-16T08:03:53;18.50;99.90
5560;DHT22;2803;47.916;8.074;2022-10-16T08:06:21;18.40;99.90
5560;DHT22;2803;47.916;8.074;2022-10-16T08:08:48;18.40;99.90
5560;DHT22;2803;47.916;8.074;2022-10-16T08:11:15;18.50;99.90
5560;DHT22;2803;47.916;8.074;2022-10-16T08:13:42;18.10;99.90
5560;DHT22;2803;47.916;8.074;2022-10-16T08:16:10;18.30;99.90
5560;DHT22;2803;47.916;8.074;2022-10-16T08:18:38;18.30;99.90
5560;DHT22;2803;47.916;8.074;2022-10-16T08:21:06;18.60;99.90
5560;DHT22;2803;47.916;8.074;2022-10-16T08:23:33;18.80;99.90
5560;DHT22;2803;47.916;8.074;2022-10-16T08:26:04;18.90;99.90
5560;DHT22;2803;47.916;8.074;2022-10-16T08:28:31;18.90;99.90
5560;DHT22;2803;47.916;8.074;2022-10-16T08:31:05;19.10;99.90
5560;DHT22;2803;47.916;8.074;2022-10-16T08:33:33;19.00;99.90
5560;DHT22;2803;47.916;8.074;2022-10-16T08:36:01;19.20;99.90
5560;DHT22;2803;47.916;8.074;2022-10-16T08:38:28;19.20;99.90
5560;DHT22;2803;47.916;8.074;2022-10-16T08:41:00;19.30;99.90
5560;DHT22;2803;47.916;8.074;2022-10-16T08:43:40;19.40;99.90
5560;DHT22;2803;47.916;8.074;2022-10-16T08:46:20;19.60;99.90
5560;DHT22;2803;47.916;8.074;2022-10-16T08:48:50;19.90;99.90
5560;DHT22;2803;47.916;8.074;2022-10-16T08:51:20;20.10;99.90
5560;DHT22;2803;47.916;8.074;2022-10-16T08:53:52;20.50;99.90
5560;DHT22;2803;47.916;8.074;2022-10-16T08:56:20;20.60;99.90
5560;DHT22;2803;47.916;8.074;2022-10-16T08:58:47;20.70;99.90
5560;DHT22;2803;47.916;8.074;2022-10-16T09:01:16;21.00;99.90
5560;DHT22;2803;47.916;8.074;2022-10-16T09:03:57;21.60;99.90
5560;DHT22;2803;47.916;8.074;2022-10-16T09:06:32;22.00;99.90
5560;DHT22;2803;47.916;8.074;2022-10-16T09:09:14;21.90;99.90
5560;DHT22;2803;47.916;8.074;2022-10-16T09:11:48;21.60;99.90
5560;DHT22;2803;47.916;8.074;2022-10-16T09:14:36;21.50;99.90
5560;DHT22;2803;47.916;8.074;2022-10-16T09:17:18;21.40;99.90
5560;DHT22;2803;47.916;8.074;2022-10-16T09:19:53;21.10;99.90
5560;DHT22;2803;47.916;8.074;2022-10-16T09:22:26;21.10;99.90
5560;DHT22;2803;47.916;8.074;2022-10-16T09:24:54;21.50;99.90
5560;DHT22;2803;47.916;8.074;2022-10-16T09:27:21;21.60;99.90
5560;DHT22;2803;47.916;8.074;2022-10-16T09:29:48;21.80;99.90
5560;DHT22;2803;47.916;8.074;2022-10-16T09:32:18;22.40;99.90
5560;DHT22;2803;47.916;8.074;2022-10-16T09:34:48;23.00;99.90
5560;DHT22;2803;47.916;8.074;2022-10-16T09:37:19;23.00;99.90
5560;DHT22;2803;47.916;8.074;2022-10-16T09:39:47;22.60;99.90
5560;DHT22;2803;47.916;8.074;2022-10-16T09:42:16;22.70;99.90
5560;DHT22;2803;47.916;8.074;2022-10-16T09:44:47;22.70;99.90
5560;DHT22;2803;47.916;8.074;2022-10-16T09:47:16;22.70;99.90
5560;DHT22;2803;47.916;8.074;2022-10-16T09:49:50;22.90;99.90
5560;DHT22;2803;47.916;8.074;2022-10-16T09:52:19;23.10;99.90
5560;DHT22;2803;47.916;8.074;2022-10-16T09:54:50;23.70;99.90
5560;DHT22;2803;47.916;8.074;2022-10-16T09:57:17;24.70;99.90
5560;DHT22;2803;47.916;8.074;2022-10-16T09:59:46;25.30;99.90
5560;DHT22;2803;47.916;8.074;2022-10-16T10:02:15;25.70;99.90
5560;DHT22;2803;47.916;8.074;2022-10-16T10:04:48;26.30;99.90
5560;DHT22;2803;47.916;8.074;2022-10-16T10:07:24;26.70;99.90
5560;DHT22;2803;47.916;8.074;2022-10-16T10:09:52;27.10;99.90
5560;DHT22;2803;47.916;8.074;2022-10-16T10:12:21;27.40;99.90
5560;DHT22;2803;47.916;8.074;2022-10-16T10:14:50;27.90;99.90
5560;DHT22;2803;47.916;8.074;2022-10-16T10:17:20;27.30;99.90
5560;DHT22;2803;47.916;8.074;2022-10-16T10:19:49;27.80;99.90
5560;DHT22;2803;47.916;8.074;2022-10-16T10:22:23;27.60;99.90
5560;DHT22;2803;47.916;8.074;2022-10-16T10:25:00;27.10;99.90
5560;DHT22;2803;47.916;8.074;2022-10-16T10:27:35;26.90;99.90
5560;DHT22;2803;47.916;8.074;2022-10-16T10:30:13;27.10;99.90
5560;DHT22;2803;47.916;8.074;2022-10-16T10:32:48;26.80;99.90
5560;DHT22;2803;47.916;8.074;2022-10-16T10:35:22;25.90;99.90
5560;DHT22;2803;47.916;8.074;2022-10-16T10:38:03;25.70;99.90
5560;DHT22;2803;47.916;8.074;2022-10-16T10:40:45;25.60;99.90
5560;DHT22;2803;47.916;8.074;2022-10-16T10:43:26;25.80;99.90
5560;DHT22;2803;47.916;8.074;2022-10-16T10:46:02;26.10;99.90
5560;DHT22;2803;47.916;8.074;2022-10-16T10:48:49;26.70;99.90
5560;DHT22;2803;47.916;8.074;2022-10-16T10:51:20;26.90;99.90
5560;DHT22;2803;47.916;8.074;2022-10-16T10:53:55;26.70;99.90
5560;DHT22;2803;47.916;8.074;2022-10-16T10:56:41;26.40;99.90
5560;DHT22;2803;47.916;8.074;2022-10-16T10:59:25;26.40;99.90
5560;DHT22;2803;47.916;8.074;2022-10-16T11:01:56;27.00;99.90
5560;DHT22;2803;47.916;8.074;2022-10-16T11:04:38;28.40;99.90
5560;DHT22;2803;47.916;8.074;2022-10-16T11:07:14;29.10;99.90
5560;DHT22;2803;47.916;8.074;2022-10-16T11:09:45;29.40;99.90
5560;DHT22;2803;47.916;8.074;2022-10-16T11:12:18;29.70;99.80
5560;DHT22;2803;47.916;8.074;2022-10-16T11:14:49;29.80;98.50
5560;DHT22;2803;47.916;8.074;2022-10-16T11:17:22;29.90;97.40
5560;DHT22;2803;47.916;8.074;2022-10-16T11:19:53;30.10;97.50
5560;DHT22;2803;47.916;8.074;2022-10-16T11:22:24;30.80;96.80
5560;DHT22;2803;47.916;8.074;2022-10-16T11:25:00;30.70;94.90
5560;DHT22;2803;47.916;8.074;2022-10-16T11:27:35;30.30;95.30
5560;DHT22;2803;47.916;8.074;2022-10-16T11:30:05;30.00;93.60
5560;DHT22;2803;47.916;8.074;2022-10-16T11:32:40;29.60;93.20
5560;DHT22;2803;47.916;8.074;2022-10-16T11:35:14;29.10;93.70
5560;DHT22;2803;47.916;8.074;2022-10-16T11:37:46;29.40;93.60
5560;DHT22;2803;47.916;8.074;2022-10-16T11:40:22;29.00;93.50
5560;DHT22;2803;47.916;8.074;2022-10-16T11:42:54;28.80;96.10
5560;DHT22;2803;47.916;8.074;2022-10-16T11:45:31;28.70;97.40
5560;DHT22;2803;47.916;8.074;2022-10-16T11:48:03;28.30;97.80
5560;DHT22;2803;47.916;8.074;2022-10-16T11:50:37;27.70;99.90
5560;DHT22;2803;47.916;8.074;2022-10-16T11:53:13;27.10;99.90
5560;DHT22;2803;47.916;8.074;2022-10-16T11:55:44;26.80;99.40
5560;DHT22;2803;47.916;8.074;2022-10-16T11:58:16;26.60;99.70
5560;DHT22;2803;47.916;8.074;2022-10-16T12:00:53;26.50;99.70
5560;DHT22;2803;47.916;8.074;2022-10-16T12:03:26;26.40;99.90
5560;DHT22;2803;47.916;8.074;2022-10-16T12:06:01;26.30;99.90
5560;DHT22;2803;47.916;8.074;2022-10-16T12:08:33;26.20;99.90
5560;DHT22;2803;47.916;8.074;2022-10-16T12:11:09;25.80;99.90
5560;DHT22;2803;47.916;8.074;2022-10-16T12:13:38;25.40;99.90
5560;DHT22;2803;47.916;8.074;2022-10-16T12:16:07;25.10;99.90
5560;DHT22;2803;47.916;8.074;2022-10-16T12:18:46;24.40;99.90
5560;DHT22;2803;47.916;8.074;2022-10-16T12:21:14;24.30;99.90
5560;DHT22;2803;47.916;8.074;2022-10-16T12:23:47;24.60;99.90
5560;DHT22;2803;47.916;8.074;2022-10-16T12:26:24;25.00;99.90
5560;DHT22;2803;47.916;8.074;2022-10-16T12:28:51;25.10;99.90
5560;DHT22;2803;47.916;8.074;2022-10-16T12:31:17;25.20;99.90
5560;DHT22;2803;47.916;8.074;2022-10-16T12:33:55;24.70;99.90
5560;DHT22;2803;47.916;8.074;2022-10-16T12:36:28;24.50;99.90
5560;DHT22;2803;47.916;8.074;2022-10-16T12:38:55;24.70;99.90
5560;DHT22;2803;47.916;8.074;2022-10-16T12:41:28;24.80;99.90
5560;DHT22;2803;47.916;8.074;2022-10-16T12:43:55;24.70;99.90
5560;DHT22;2803;47.916;8.074;2022-10-16T12:46:34;24.30;99.90
5560;DHT22;2803;47.916;8.074;2022-10-16T12:49:20;24.20;99.90
5560;DHT22;2803;47.916;8.074;2022-10-16T12:51:47;24.00;99.90
5560;DHT22;2803;47.916;8.074;2022-10-16T12:54:16;24.70;99.90
5560;DHT22;2803;47.916;8.074;2022-10-16T12:56:53;25.00;99.90
5560;DHT22;2803;47.916;8.074;2022-10-16T12:59:31;24.90;99.90
5560;DHT22;2803;47.916;8.074;2022-10-16T13:02:28;25.00;99.90
5560;DHT22;2803;47.916;8.074;2022-10-16T13:05:11;24.60;99.90
5560;DHT22;2803;47.916;8.074;2022-10-16T13:07:48;24.90;99.90
5560;DHT22;2803;47.916;8.074;2022-10-16T13:10:25;25.20;99.90
5560;DHT22;2803;47.916;8.074;2022-10-16T13:13:13;25.10;99.90
5560;DHT22;2803;47.916;8.074;2022-10-16T13:15:57;25.10;99.90
5560;DHT22;2803;47.916;8.074;2022-10-16T13:18:32;25.00;99.90
5560;DHT22;2803;47.916;8.074;2022-10-16T13:21:10;25.00;99.90
5560;DHT22;2803;47.916;8.074;2022-10-16T13:23:44;24.50;99.90
5560;DHT22;2803;47.916;8.074;2022-10-16T13:26:21;24.60;99.90
5560;DHT22;2803;47.916;8.074;2022-10-16T13:28:51;24.10;99.90
5560;DHT22;2803;47.916;8.074;2022-10-16T13:31:20;23.90;99.90
5560;DHT22;2803;47.916;8.074;2022-10-16T13:33:50;23.80;99.90
5560;DHT22;2803;47.916;8.074;2022-10-16T13:36:22;24.10;99.90
5560;DHT22;2803;47.916;8.074;2022-10-16T13:39:00;24.30;99.90
5560;DHT22;2803;47.916;8.074;2022-10-16T13:41:31;24.20;99.90
5560;DHT22;2803;47.916;8.074;2022-10-16T13:43:59;23.60;99.90
5560;DHT22;2803;47.916;8.074;2022-10-16T13:46:26;23.60;99.90
5560;DHT22;2803;47.916;8.074;2022-10-16T13:48:57;23.70;99.90
5560;DHT22;2803;47.916;8.074;2022-10-16T13:51:24;23.80;99.90
5560;DHT22;2803;47.916;8.074;2022-10-16T13:53:52;23.10;99.90
5560;DHT22;2803;47.916;8.074;2022-10-16T13:56:21;23.30;99.90
5560;DHT22;2803;47.916;8.074;2022-10-16T13:58:59;23.30;99.90
5560;DHT22;2803;47.916;8.074;2022-10-16T14:01:28;23.30;99.90
5560;DHT22;2803;47.916;8.074;2022-10-16T14:04:01;23.40;99.90
5560;DHT22;2803;47.916;8.074;2022-10-16T14:06:28;23.50;99.90
5560;DHT22;2803;47.916;8.074;2022-10-16T14:08:59;23.40;99.90
5560;DHT22;2803;47.916;8.074;2022-10-16T14:11:27;23.00;99.90
5560;DHT22;2803;47.916;8.074;2022-10-16T14:13:55;23.10;99.90
5560;DHT22;2803;47.916;8.074;2022-10-16T14:16:26;22.80;99.90
5560;DHT22;2803;47.916;8.074;2022-10-16T14:18:57;22.40;99.90
5560;DHT22;2803;47.916;8.074;2022-10-16T14:21:25;22.50;99.90
5560;DHT22;2803;47.916;8.074;2022-10-16T14:23:53;22.60;99.90
5560;DHT22;2803;47.916;8.074;2022-10-16T14:26:22;22.30;99.90
5560;DHT22;2803;47.916;8.074;2022-10-16T14:29:01;22.50;99.90
5560;DHT22;2803;47.916;8.074;2022-10-16T14:31:33;22.60;99.90
5560;DHT22;2803;47.916;8.074;2022-10-16T14:34:01;22.50;99.90
5560;DHT22;2803;47.916;8.074;2022-10-16T14:36:28;22.40;99.90
5560;DHT22;2803;47.916;8.074;2022-10-16T14:39:00;22.60;99.90
5560;DHT22;2803;47.916;8.074;2022-10-16T14:41:29;22.60;99.90
5560;DHT22;2803;47.916;8.074;2022-10-16T14:43:57;22.50;99.90
5560;DHT22;2803;47.916;8.074;2022-10-16T14:46:31;22.30;99.90
5560;DHT22;2803;47.916;8.074;2022-10-16T14:49:02;22.40;99.90
5560;DHT22;2803;47.916;8.074;2022-10-16T14:51:30;22.60;99.90
5560;DHT22;2803;47.916;8.074;2022-10-16T14:53:56;22.30;99.90
5560;DHT22;2803;47.916;8.074;2022-10-16T14:56:25;22.30;99.90
5560;DHT22;2803;47.916;8.074;2022-10-16T14:58:53;22.20;99.90
5560;DHT22;2803;47.916;8.074;2022-10-16T15:01:20;22.30;99.90
5560;DHT22;2803;47.916;8.074;2022-10-16T15:03:48;22.40;99.90
5560;DHT22;2803;47.916;8.074;2022-10-16T15:06:17;22.30;99.90
5560;DHT22;2803;47.916;8.074;2022-10-16T15:08:44;22.40;99.90
5560;DHT22;2803;47.916;8.074;2022-10-16T15:11:13;22.20;99.90
5560;DHT22;2803;47.916;8.074;2022-10-16T15:13:40;22.30;99.90
5560;DHT22;2803;47.916;8.074;2022-10-16T15:16:09;22.40;99.90
5560;DHT22;2803;47.916;8.074;2022-10-16T15:18:36;22.10;99.90
5560;DHT22;2803;47.916;8.074;2022-10-16T15:21:05;22.10;99.90
5560;DHT22;2803;47.916;8.074;2022-10-16T15:23:32;22.10;99.90
5560;DHT22;2803;47.916;8.074;2022-10-16T15:25:58;21.90;99.90
5560;DHT22;2803;47.916;8.074;2022-10-16T15:28:25;22.00;99.90
5560;DHT22;2803;47.916;8.074;2022-10-16T15:30:54;22.00;99.90
5560;DHT22;2803;47.916;8.074;2022-10-16T15:33:23;22.20;99.90
5560;DHT22;2803;47.916;8.074;2022-10-16T15:35:52;22.10;99.90
5560;DHT22;2803;47.916;8.074;2022-10-16T15:38:22;22.10;99.90
5560;DHT22;2803;47.916;8.074;2022-10-16T15:40:49;22.00;99.90
5560;DHT22;2803;47.916;8.074;2022-10-16T15:43:17;22.00;99.90
5560;DHT22;2803;47.916;8.074;2022-10-16T15:45:44;22.00;99.90
5560;DHT22;2803;47.916;8.074;2022-10-16T15:48:12;22.00;99.90
5560;DHT22;2803;47.916;8.074;2022-10-16T15:50:39;21.70;99.90
5560;DHT22;2803;47.916;8.074;2022-10-16T15:53:06;21.80;99.90
5560;DHT22;2803;47.916;8.074;2022-10-16T15:55:34;21.70;99.90
5560;DHT22;2803;47.916;8.074;2022-10-16T15:58:03;21.60;99.90
5560;DHT22;2803;47.916;8.074;2022-10-16T16:00:29;21.60;99.90
5560;DHT22;2803;47.916;8.074;2022-10-16T16:02:56;21.70;99.90
5560;DHT22;2803;47.916;8.074;2022-10-16T16:05:23;21.60;99.90
5560;DHT22;2803;47.916;8.074;2022-10-16T16:07:50;21.50;99.90
5560;DHT22;2803;47.916;8.074;2022-10-16T16:10:17;21.50;99.90
5560;DHT22;2803;47.916;8.074;2022-10-16T16:12:47;21.10;99.90
5560;DHT22;2803;47.916;8.074;2022-10-16T16:15:18;20.80;99.90
5560;DHT22;2803;47.916;8.074;2022-10-16T16:17:45;20.60;99.90